Svs Cochrane — J8B4679 — position and weather

sailwx.info

Track history (hours):
 
Tides and Currents Weather Stations Pressure Air Temp Water Temp Dewpoint Dewpoint Depression Visibility Wind Speed Wind Dir Waves Ship Positions

Svs Cochrane

Last reported at 2017-Sep-23 23:34 UTC. Time now 2017-Sep-25 06:18 UTC.
Position N 04°34' W 002°08'.

Length 52 m; draft 3.4 m.

Type: Ship. MMSI: 376091000.

Date/timePositionNaut miles runAvg speedWind from/ knotsBaromVisibWave heightAir tempDewpointWater temp
2017-Sep-23 23:34N 04°34' W 002°08'110.4
2017-Sep-23 23:30N 04°34' W 002°09'510.1
2017-Sep-23 23:00N 04°32' W 002°14'510.0
2017-Sep-23 22:30N 04°31' W 002°19'510.3
2017-Sep-23 22:00N 04°29' W 002°23'5 9.9
2017-Sep-23 21:29N 04°28' W 002°28'4 8.5
2017-Sep-23 20:59N 04°26' W 002°32'2 3.6
2017-Sep-23 20:29N 04°26' W 002°34'0 0.6
2017-Sep-23 20:00N 04°26' W 002°34'1 0.0
2017-Sep-22 01:59N 04°26' W 002°35'0 0.7
2017-Sep-22 01:30N 04°26' W 002°35'0 0.8
2017-Sep-22 01:00N 04°26' W 002°35'0 0.4
2017-Sep-22 00:29N 04°27' W 002°35'0 0.8
2017-Sep-21 23:59N 04°26' W 002°35'0 0.5
2017-Sep-21 23:30N 04°26' W 002°35'0 0.6
2017-Sep-21 23:00N 04°27' W 002°35'1 1.3
2017-Sep-21 22:30N 04°27' W 002°35'0 0.3
2017-Sep-21 21:59N 04°27' W 002°35'0 0.2
2017-Sep-21 21:29N 04°27' W 002°35'0 0.8
2017-Sep-21 20:59N 04°27' W 002°35'0 0.9
2017-Sep-21 20:29N 04°26' W 002°35'0 0.1
2017-Sep-21 19:59N 04°26' W 002°35'0 0.4
2017-Sep-21 19:30N 04°26' W 002°35'0 1.0
2017-Sep-21 19:00N 04°27' W 002°35'0 1.0
2017-Sep-21 18:30N 04°27' W 002°34'1 1.9
2017-Sep-21 17:59N 04°28' W 002°34'1 1.3
2017-Sep-21 17:29N 04°28' W 002°34'1 2.0
2017-Sep-21 17:00N 04°29' W 002°34'0 0.9
2017-Sep-21 16:30N 04°28' W 002°34'0 0.7
2017-Sep-21 16:00N 04°28' W 002°34'0 0.6
2017-Sep-21 15:29N 04°27' W 002°34'0 0.6
2017-Sep-21 14:59N 04°27' W 002°34'0 0.4
2017-Sep-21 14:29N 04°27' W 002°34'0 0.2
2017-Sep-21 14:01N 04°27' W 002°34'0 0.2
2017-Sep-21 13:30N 04°27' W 002°34'0 0.4
2017-Sep-21 13:00N 04°27' W 002°34'0 0.5
2017-Sep-21 12:30N 04°27' W 002°34'0 0.5
2017-Sep-21 11:59N 04°27' W 002°34'0 0.4
2017-Sep-21 11:29N 04°26' W 002°34'0 0.3
2017-Sep-21 11:00N 04°26' W 002°33'1 1.3
2017-Sep-21 10:30N 04°27' W 002°33'0 0.6
2017-Sep-21 10:00N 04°27' W 002°33'0 0.2
2017-Sep-21 09:29N 04°27' W 002°33'0 0.7
2017-Sep-21 08:59N 04°27' W 002°33'0 0.6
2017-Sep-21 08:30N 04°27' W 002°33'0 0.6
2017-Sep-21 08:00N 04°27' W 002°33'0 0.7
2017-Sep-21 07:29N 04°27' W 002°33'0 0.4
2017-Sep-21 06:59N 04°27' W 002°33'1 1.1
2017-Sep-21 06:30N 04°27' W 002°33'0 0.8
2017-Sep-21 06:00N 04°27' W 002°33'0 0.7
2017-Sep-21 05:29N 04°27' W 002°33'1 2.0
2017-Sep-21 04:59N 04°27' W 002°33'0 0.7
2017-Sep-21 04:30N 04°27' W 002°33'0 0.8
2017-Sep-21 04:00N 04°26' W 002°33'0 0.5
2017-Sep-21 03:29N 04°26' W 002°34'0 0.3
2017-Sep-21 02:59N 04°26' W 002°34'0 0.4
2017-Sep-21 02:29N 04°26' W 002°34'0 0.4
2017-Sep-21 02:00N 04°26' W 002°34'0 0.4
2017-Sep-21 01:29N 04°26' W 002°34'0 0.6
2017-Sep-21 00:59N 04°26' W 002°33'0 0.7
2017-Sep-21 00:29N 04°26' W 002°33'0 0.1
2017-Sep-21 00:00N 04°26' W 002°33'0 0.4
2017-Sep-20 23:30N 04°26' W 002°33'0 0.5
2017-Sep-20 23:00N 04°26' W 002°33'0 0.5
2017-Sep-20 22:29N 04°26' W 002°33'0 0.9
2017-Sep-20 21:59N 04°26' W 002°33'0 0.7
2017-Sep-20 21:29N 04°26' W 002°33'0 0.8
2017-Sep-20 20:59N 04°26' W 002°33'0 0.9
2017-Sep-20 20:30N 04°26' W 002°32'1 1.2
2017-Sep-20 20:00N 04°26' W 002°33'0 0.3
2017-Sep-20 19:29N 04°27' W 002°32'1 1.4
2017-Sep-20 18:59N 04°27' W 002°32'1 2.2
2017-Sep-20 18:30N 04°28' W 002°33'0 0.7
2017-Sep-20 18:00N 04°29' W 002°33'0 0.7
2017-Sep-20 17:30N 04°28' W 002°32'1 1.1
2017-Sep-20 17:00N 04°29' W 002°32'0 0.8
2017-Sep-20 16:30N 04°28' W 002°32'1 1.4
2017-Sep-20 15:59N 04°28' W 002°32'2 4.5
2017-Sep-20 15:29N 04°28' W 002°35'0 0.7
2017-Sep-20 14:59N 04°27' W 002°34'1 0.8
2017-Sep-20 14:00N 04°27' W 002°34'1 1.7
2017-Sep-20 13:30N 04°27' W 002°33'0 0.6
2017-Sep-20 12:59N 04°26' W 002°33'0 0.6
2017-Sep-20 12:29N 04°26' W 002°33'1 1.7
2017-Sep-20 12:00N 04°27' W 002°34'0 0.6
2017-Sep-20 11:30N 04°26' W 002°34'0 0.8
2017-Sep-20 11:00N 04°26' W 002°33'1 1.2
2017-Sep-20 10:29N 04°27' W 002°34'0 0.5
2017-Sep-20 09:59N 04°26' W 002°34'0 0.5
2017-Sep-20 09:29N 04°26' W 002°33'0 0.9
2017-Sep-20 08:59N 04°26' W 002°33'1 1.6
2017-Sep-20 08:30N 04°27' W 002°33'0 0.3
2017-Sep-20 08:00N 04°27' W 002°33'1 2.7
2017-Sep-20 07:29N 04°27' W 002°34'0 0.2
2017-Sep-20 06:59N 04°27' W 002°34'0 0.9
2017-Sep-20 06:29N 04°27' W 002°34'0 0.9
2017-Sep-20 06:00N 04°27' W 002°33'1 1.0
2017-Sep-20 05:30N 04°26' W 002°33'1 1.5
2017-Sep-20 04:59N 04°27' W 002°34'1 1.5
2017-Sep-20 04:29N 04°26' W 002°34'1 2.8
2017-Sep-20 04:00N 04°26' W 002°36'1 2.4
2017-Sep-20 03:30N 04°27' W 002°36'0 0.7
2017-Sep-20 03:00N 04°27' W 002°36'0 0.8
2017-Sep-20 02:29N 04°27' W 002°36'0 0.8
2017-Sep-20 01:59N 04°27' W 002°35'0 0.9
2017-Sep-20 01:30N 04°26' W 002°35'0 0.7
2017-Sep-20 01:00N 04°26' W 002°35'1 1.2
2017-Sep-20 00:29N 04°26' W 002°34'0 0.6
2017-Sep-19 23:59N 04°26' W 002°34'0 0.5
2017-Sep-19 23:30N 04°26' W 002°34'0 0.5
2017-Sep-19 23:00N 04°26' W 002°34'0 0.5
2017-Sep-19 22:30N 04°26' W 002°34'0 0.4
2017-Sep-19 21:59N 04°26' W 002°34'1 1.2
2017-Sep-19 21:29N 04°26' W 002°33'0 0.2
2017-Sep-19 20:59N 04°26' W 002°33'0 0.5
2017-Sep-19 20:30N 04°26' W 002°33'0 0.6
2017-Sep-19 19:58N 04°26' W 002°33'3 0.2
2017-Sep-19 05:01N 04°28' W 002°36'0 3.6
2017-Sep-19 04:59N 04°28' W 002°36'1 2.3
2017-Sep-19 04:29N 04°27' W 002°36'0 0.4
2017-Sep-19 04:00N 04°27' W 002°36'0 0.3
2017-Sep-19 03:30N 04°27' W 002°36'0 0.2
2017-Sep-19 02:59N 04°26' W 002°36'1 1.1
2017-Sep-19 02:29N 04°26' W 002°36'1 1.6
2017-Sep-19 02:00N 04°26' W 002°36'0 0.4
2017-Sep-19 01:30N 04°26' W 002°35'0 0.8
2017-Sep-19 01:00N 04°27' W 002°35'1 1.1
2017-Sep-19 00:29N 04°27' W 002°35'0 0.6
2017-Sep-18 23:59N 04°27' W 002°34'0 0.4
2017-Sep-18 23:30N 04°27' W 002°34'0 0.6
2017-Sep-18 23:00N 04°27' W 002°34'0 0.1
2017-Sep-18 22:30N 04°27' W 002°34'0 0.9
2017-Sep-18 22:00N 04°27' W 002°33'0 0.4
2017-Sep-18 21:29N 04°26' W 002°34'0 0.6
2017-Sep-18 20:59N 04°26' W 002°34'0 0.6
2017-Sep-18 20:29N 04°26' W 002°34'0 0.5
2017-Sep-18 19:59N 04°26' W 002°34'0 0.8
2017-Sep-18 19:30N 04°25' W 002°34'0 0.4
2017-Sep-18 19:00N 04°25' W 002°34'1 1.8
2017-Sep-18 18:30N 04°25' W 002°33'1 2.4
2017-Sep-18 18:00N 04°26' W 002°33'1 2.4
2017-Sep-18 17:29N 04°27' W 002°33'0 0.9
2017-Sep-18 16:59N 04°28' W 002°33'0 0.4
2017-Sep-18 16:29N 04°28' W 002°33'1 2.4
2017-Sep-18 15:59N 04°28' W 002°32'0 0.5
2017-Sep-18 15:30N 04°28' W 002°32'0 0.7
2017-Sep-18 15:00N 04°27' W 002°32'0 0.2
2017-Sep-18 14:30N 04°27' W 002°32'0 0.4
2017-Sep-18 14:00N 04°27' W 002°32'1 1.3
2017-Sep-18 13:29N 04°28' W 002°31'0 0.4
2017-Sep-18 12:59N 04°28' W 002°31'1 1.4
2017-Sep-18 12:29N 04°28' W 002°32'0 0.5
2017-Sep-18 12:00N 04°28' W 002°32'0 0.1
2017-Sep-18 11:28N 04°28' W 002°32'0 0.3
2017-Sep-18 11:00N 04°28' W 002°32'0 0.6
2017-Sep-18 10:29N 04°28' W 002°32'0 0.5
2017-Sep-18 09:59N 04°28' W 002°32'0 0.7
2017-Sep-18 09:30N 04°27' W 002°32'0 0.4
2017-Sep-18 09:00N 04°27' W 002°32'1 1.5
2017-Sep-18 08:29N 04°28' W 002°31'1 1.5
2017-Sep-18 07:59N 04°28' W 002°32'1 1.6
2017-Sep-18 07:29N 04°28' W 002°33'0 0.9
2017-Sep-18 06:59N 04°27' W 002°33'0 0.8
2017-Sep-18 06:29N 04°27' W 002°33'0 0.9
2017-Sep-18 06:00N 04°27' W 002°33'0 0.5
2017-Sep-18 05:30N 04°27' W 002°33'0 0.4
2017-Sep-18 04:59N 04°27' W 002°33'0 0.6
2017-Sep-18 04:29N 04°26' W 002°33'1 1.3
2017-Sep-18 04:00N 04°27' W 002°34'0 0.6
2017-Sep-18 03:30N 04°26' W 002°34'0 0.4
2017-Sep-18 02:59N 04°27' W 002°34'1 1.9
2017-Sep-18 02:29N 04°28' W 002°34'1 2.4
2017-Sep-18 01:59N 04°29' W 002°33'0 0.2
2017-Sep-18 01:30N 04°29' W 002°33'0 0.3
2017-Sep-18 01:00N 04°29' W 002°33'0 0.4
2017-Sep-18 00:30N 04°29' W 002°33'0 0.6
2017-Sep-17 23:59N 04°29' W 002°33'1 1.4
2017-Sep-17 23:29N 04°30' W 002°33'0 0.8
2017-Sep-17 23:00N 04°29' W 002°33'0 0.7
2017-Sep-17 22:30N 04°29' W 002°33'0 0.3
2017-Sep-17 22:00N 04°29' W 002°33'0 0.3
2017-Sep-17 21:29N 04°29' W 002°33'1 1.2
2017-Sep-17 20:59N 04°28' W 002°33'1 1.1
2017-Sep-17 20:30N 04°28' W 002°33'1 1.4
2017-Sep-17 20:00N 04°27' W 002°33'1 2.4
2017-Sep-17 19:30N 04°27' W 002°32'1 1.8
2017-Sep-17 19:00N 04°27' W 002°32'1 1.9
2017-Sep-17 18:29N 04°28' W 002°31'1 2.5
2017-Sep-17 17:59N 04°29' W 002°30'0 0.6
2017-Sep-17 17:30N 04°29' W 002°30'1 1.1
2017-Sep-17 17:00N 04°30' W 002°30'1 1.4
2017-Sep-17 16:30N 04°30' W 002°30'1 1.5
2017-Sep-17 15:59N 04°31' W 002°30'0 0.2
2017-Sep-17 15:29N 04°31' W 002°30'0 0.9
2017-Sep-17 14:59N 04°30' W 002°30'0 0.2
2017-Sep-17 14:30N 04°30' W 002°30'0 0.5
2017-Sep-17 14:00N 04°31' W 002°30'0 0.7
2017-Sep-17 13:29N 04°30' W 002°31'0 0.6
2017-Sep-17 12:59N 04°30' W 002°31'0 0.4
2017-Sep-17 12:29N 04°30' W 002°31'0 0.5
2017-Sep-17 11:58N 04°29' W 002°31'0 0.6
2017-Sep-17 11:30N 04°29' W 002°31'0 0.6
2017-Sep-17 11:00N 04°29' W 002°31'0 0.6
2017-Sep-17 10:30N 04°29' W 002°31'1 1.6
2017-Sep-17 10:00N 04°29' W 002°30'1 1.7
2017-Sep-17 09:29N 04°30' W 002°30'1 1.0
2017-Sep-17 08:59N 04°30' W 002°30'0 0.3
2017-Sep-17 08:29N 04°30' W 002°31'0 0.2
2017-Sep-17 07:59N 04°30' W 002°31'0 1.0
2017-Sep-17 07:30N 04°30' W 002°31'1 1.3
2017-Sep-17 07:00N 04°29' W 002°30'0 0.7
2017-Sep-17 06:30N 04°29' W 002°30'2 4.7
2017-Sep-17 06:00N 04°27' W 002°32'1 1.3
2017-Sep-17 05:29N 04°27' W 002°32'0 0.7
2017-Sep-17 04:59N 04°26' W 002°32'1 1.4
2017-Sep-17 04:30N 04°27' W 002°33'0 0.6
2017-Sep-17 04:00N 04°27' W 002°33'0 0.5
2017-Sep-17 03:30N 04°26' W 002°33'0 0.5
2017-Sep-17 03:00N 04°26' W 002°33'0 0.2
2017-Sep-17 02:30N 04°26' W 002°33'0 0.7
2017-Sep-17 01:59N 04°26' W 002°34'0 0.8
2017-Sep-17 01:30N 04°26' W 002°33'0 0.2
2017-Sep-17 01:00N 04°26' W 002°33'0 0.2
2017-Sep-17 00:30N 04°26' W 002°34'0 0.6
2017-Sep-16 23:59N 04°26' W 002°34'1 1.6
2017-Sep-16 23:29N 04°27' W 002°34'0 0.7
2017-Sep-16 23:00N 04°27' W 002°34'0 0.6
2017-Sep-16 22:30N 04°26' W 002°34'0 0.5
2017-Sep-16 22:00N 04°26' W 002°34'0 0.5
2017-Sep-16 21:29N 04°26' W 002°34'0 0.6
2017-Sep-16 20:59N 04°26' W 002°34'0 0.7
2017-Sep-16 20:30N 04°26' W 002°34'0 0.6
2017-Sep-16 20:00N 04°25' W 002°34'0 0.5
2017-Sep-16 19:30N 04°25' W 002°34'0 0.5
2017-Sep-16 19:00N 04°25' W 002°34'0 0.4
2017-Sep-16 18:29N 04°25' W 002°33'1 2.4
2017-Sep-16 17:59N 04°26' W 002°33'1 2.2
2017-Sep-16 17:29N 04°27' W 002°33'0 1.0
2017-Sep-16 16:59N 04°28' W 002°33'0 0.5
2017-Sep-16 16:30N 04°28' W 002°33'1 1.2
2017-Sep-16 16:00N 04°27' W 002°33'0 0.4
2017-Sep-16 15:30N 04°27' W 002°33'0 0.8
2017-Sep-16 15:00N 04°27' W 002°34'0 0.8
2017-Sep-16 14:30N 04°27' W 002°34'1 2.3
2017-Sep-16 14:00N 04°28' W 002°33'1 2.4
2017-Sep-16 13:29N 04°27' W 002°33'1 1.3
2017-Sep-16 12:59N 04°27' W 002°32'1 2.0
2017-Sep-16 12:29N 04°28' W 002°32'1 1.4
2017-Sep-16 11:59N 04°29' W 002°32'1 1.3
2017-Sep-16 11:30N 04°29' W 002°32'0 0.3
2017-Sep-16 10:59N 04°29' W 002°32'0 0.4
2017-Sep-16 10:29N 04°29' W 002°32'0 0.5
2017-Sep-16 10:00N 04°29' W 002°32'1 1.5
2017-Sep-16 09:29N 04°29' W 002°31'1 1.2
2017-Sep-16 08:59N 04°29' W 002°30'3 5.3
2017-Sep-16 08:29N 04°27' W 002°32'0 0.6
2017-Sep-16 07:59N 04°27' W 002°32'0 0.4
2017-Sep-16 07:30N 04°26' W 002°32'1 1.2
2017-Sep-16 07:00N 04°27' W 002°33'0 0.5
2017-Sep-16 06:30N 04°27' W 002°33'0 0.4
2017-Sep-16 05:59N 04°26' W 002°33'1 1.4
2017-Sep-16 05:29N 04°26' W 002°33'2 3.5
2017-Sep-16 04:59N 04°25' W 002°35'1 2.7
2017-Sep-16 04:30N 04°26' W 002°35'0 0.6
2017-Sep-16 04:00N 04°26' W 002°34'0 0.4
2017-Sep-16 03:29N 04°27' W 002°34'1 1.9
2017-Sep-16 02:59N 04°26' W 002°35'1 1.8
2017-Sep-16 02:30N 04°26' W 002°35'0 0.2
2017-Sep-16 02:00N 04°26' W 002°35'0 0.6
2017-Sep-16 01:30N 04°26' W 002°35'0 0.4
2017-Sep-16 00:59N 04°26' W 002°35'0 0.6
2017-Sep-16 00:27N 04°26' W 002°35'1 1.2
2017-Sep-15 23:59N 04°27' W 002°34'0 0.5
2017-Sep-15 23:30N 04°26' W 002°35'0 0.5
2017-Sep-15 23:00N 04°27' W 002°34'0 0.4
2017-Sep-15 22:29N 04°26' W 002°34'0 0.4
2017-Sep-15 21:59N 04°27' W 002°34'0 0.5
2017-Sep-15 21:29N 04°26' W 002°34'0 0.8
2017-Sep-15 21:00N 04°26' W 002°34'0 1.0
2017-Sep-15 20:30N 04°27' W 002°34'1 1.6
2017-Sep-15 20:00N 04°27' W 002°33'1 2.7
2017-Sep-15 19:29N 04°28' W 002°32'2 3.5
2017-Sep-15 18:59N 04°29' W 002°31'0 0.4
2017-Sep-15 18:30N 04°29' W 002°31'0 1.0
2017-Sep-15 18:00N 04°29' W 002°30'0 0.1
2017-Sep-15 17:30N 04°29' W 002°30'3 6.1
2017-Sep-15 16:59N 04°28' W 002°33'1 2.5
2017-Sep-15 16:29N 04°28' W 002°34'0 0.3
2017-Sep-15 15:59N 04°28' W 002°35'0 0.5
2017-Sep-15 15:30N 04°28' W 002°35'0 0.4
2017-Sep-15 15:00N 04°28' W 002°35'0 0.5
2017-Sep-15 14:30N 04°28' W 002°35'0 0.6
2017-Sep-15 13:59N 04°27' W 002°35'0 0.6
2017-Sep-15 13:29N 04°27' W 002°35'0 0.5
2017-Sep-15 13:00N 04°27' W 002°35'0 0.4
2017-Sep-15 12:30N 04°27' W 002°35'0 0.3
2017-Sep-15 12:00N 04°27' W 002°35'1 1.8
2017-Sep-15 11:29N 04°27' W 002°36'1 1.1
2017-Sep-15 10:59N 04°28' W 002°36'0 0.4
2017-Sep-15 10:29N 04°28' W 002°36'1 1.6
2017-Sep-15 10:00N 04°29' W 002°35'0 0.5
2017-Sep-15 09:30N 04°28' W 002°36'0 0.4
2017-Sep-15 09:00N 04°28' W 002°36'0 0.4
2017-Sep-15 08:29N 04°28' W 002°36'1 1.4
2017-Sep-15 07:59N 04°28' W 002°35'0 0.7
2017-Sep-15 07:30N 04°28' W 002°35'0 0.5
2017-Sep-15 07:00N 04°28' W 002°35'0 0.5
2017-Sep-15 06:30N 04°28' W 002°35'0 0.4
2017-Sep-15 06:00N 04°28' W 002°35'0 0.4
2017-Sep-15 05:29N 04°27' W 002°35'1 1.8
2017-Sep-15 04:59N 04°27' W 002°35'1 1.0
2017-Sep-15 04:29N 04°27' W 002°34'0 0.6
2017-Sep-15 03:59N 04°27' W 002°34'1 2.2
2017-Sep-15 03:30N 04°26' W 002°35'0 0.6
2017-Sep-15 03:00N 04°26' W 002°35'0 0.8
2017-Sep-15 02:29N 04°26' W 002°34'0 0.4
2017-Sep-15 01:59N 04°26' W 002°35'0 0.1
2017-Sep-15 01:29N 04°26' W 002°35'0 0.3
2017-Sep-15 01:00N 04°26' W 002°35'1 1.1
2017-Sep-15 00:30N 04°26' W 002°34'0 0.6
2017-Sep-15 00:00N 04°26' W 002°34'0 0.6
2017-Sep-14 23:29N 04°26' W 002°35'0 0.2
2017-Sep-14 22:59N 04°26' W 002°35'0 0.4
2017-Sep-14 22:30N 04°26' W 002°34'0 0.7
2017-Sep-14 22:00N 04°26' W 002°35'0 0.6
2017-Sep-14 21:30N 04°26' W 002°35'0 0.6
2017-Sep-14 20:59N 04°26' W 002°35'0 0.5
2017-Sep-14 20:30N 04°26' W 002°36'0 0.5
2017-Sep-14 20:00N 04°26' W 002°36'0 0.6
2017-Sep-14 19:30N 04°26' W 002°36'0 0.1
2017-Sep-14 19:00N 04°26' W 002°36'1 2.2
2017-Sep-14 18:29N 04°26' W 002°35'1 2.3
2017-Sep-14 17:59N 04°27' W 002°34'1 2.1
2017-Sep-14 17:25N 04°28' W 002°33'1 1.3
2017-Sep-14 16:58N 04°27' W 002°33'1 1.9
2017-Sep-14 16:30N 04°27' W 002°32'1 2.1
2017-Sep-14 15:59N 04°27' W 002°31'0 0.5
2017-Sep-14 15:29N 04°27' W 002°31'0 0.3
2017-Sep-14 14:59N 04°27' W 002°31'0 0.3
2017-Sep-14 14:30N 04°27' W 002°31'0 0.6
2017-Sep-14 14:00N 04°27' W 002°31'0 0.7
2017-Sep-14 13:30N 04°26' W 002°32'0 0.8
2017-Sep-14 12:59N 04°26' W 002°32'0 0.6
2017-Sep-14 12:29N 04°26' W 002°32'0 0.6
2017-Sep-14 11:59N 04°27' W 002°32'0 0.5
2017-Sep-14 11:29N 04°27' W 002°33'0 0.4
2017-Sep-14 11:00N 04°27' W 002°33'0 0.4
2017-Sep-14 10:29N 04°27' W 002°33'0 0.4
2017-Sep-14 09:59N 04°27' W 002°33'0 0.4
2017-Sep-14 09:30N 04°27' W 002°33'1 1.0
2017-Sep-14 09:00N 04°27' W 002°34'1 2.2
2017-Sep-14 08:26N 04°26' W 002°33'0 0.4
2017-Sep-14 08:00N 04°26' W 002°33'1 1.1
2017-Sep-14 07:29N 04°26' W 002°33'0 0.1
2017-Sep-14 06:59N 04°26' W 002°33'0 0.7
2017-Sep-14 06:29N 04°26' W 002°33'0 1.0
2017-Sep-14 06:00N 04°26' W 002°33'1 1.6
2017-Sep-14 05:30N 04°27' W 002°33'0 0.3
2017-Sep-14 04:59N 04°27' W 002°33'0 0.8
2017-Sep-14 04:29N 04°27' W 002°33'0 0.8
2017-Sep-14 03:59N 04°27' W 002°34'0 0.7
2017-Sep-14 03:30N 04°27' W 002°34'0 0.1
2017-Sep-14 03:00N 04°27' W 002°34'1 1.2
2017-Sep-14 02:30N 04°27' W 002°34'0 0.8
2017-Sep-14 02:00N 04°27' W 002°34'0 0.4
2017-Sep-14 01:30N 04°27' W 002°34'0 0.9
2017-Sep-14 01:00N 04°27' W 002°34'0 0.6
2017-Sep-14 00:30N 04°27' W 002°34'0 0.7
2017-Sep-13 23:59N 04°26' W 002°34'  
Track history (hours):
 
Tides and Currents Weather Stations Pressure Air Temp Water Temp Dewpoint Dewpoint Depression Visibility Wind Speed Wind Dir Waves Ship Positions

Svs Cochrane

Last reported at 2017-Sep-23 23:34 UTC. Time now 2017-Sep-25 06:18 UTC.
Position N 04°34' W 002°08'.

Length 52 m; draft 3.4 m.

Type: Ship. MMSI: 376091000.

Date/timePositionNaut miles runAvg speedWind from/ knotsBaromVisibWave heightAir tempDewpointWater temp
2017-Sep-23 23:34N 04°34' W 002°08'110.4
2017-Sep-23 23:30N 04°34' W 002°09'510.1
2017-Sep-23 23:00N 04°32' W 002°14'510.0
2017-Sep-23 22:30N 04°31' W 002°19'510.3
2017-Sep-23 22:00N 04°29' W 002°23'5 9.9
2017-Sep-23 21:29N 04°28' W 002°28'4 8.5
2017-Sep-23 20:59N 04°26' W 002°32'2 3.6
2017-Sep-23 20:29N 04°26' W 002°34'0 0.6
2017-Sep-23 20:00N 04°26' W 002°34'1 0.0
2017-Sep-22 01:59N 04°26' W 002°35'0 0.7
2017-Sep-22 01:30N 04°26' W 002°35'0 0.8
2017-Sep-22 01:00N 04°26' W 002°35'0 0.4
2017-Sep-22 00:29N 04°27' W 002°35'0 0.8
2017-Sep-21 23:59N 04°26' W 002°35'0 0.5
2017-Sep-21 23:30N 04°26' W 002°35'0 0.6
2017-Sep-21 23:00N 04°27' W 002°35'1 1.3
2017-Sep-21 22:30N 04°27' W 002°35'0 0.3
2017-Sep-21 21:59N 04°27' W 002°35'0 0.2
2017-Sep-21 21:29N 04°27' W 002°35'0 0.8
2017-Sep-21 20:59N 04°27' W 002°35'0 0.9
2017-Sep-21 20:29N 04°26' W 002°35'0 0.1
2017-Sep-21 19:59N 04°26' W 002°35'0 0.4
2017-Sep-21 19:30N 04°26' W 002°35'0 1.0
2017-Sep-21 19:00N 04°27' W 002°35'0 1.0
2017-Sep-21 18:30N 04°27' W 002°34'1 1.9
2017-Sep-21 17:59N 04°28' W 002°34'1 1.3
2017-Sep-21 17:29N 04°28' W 002°34'1 2.0
2017-Sep-21 17:00N 04°29' W 002°34'0 0.9
2017-Sep-21 16:30N 04°28' W 002°34'0 0.7
2017-Sep-21 16:00N 04°28' W 002°34'0 0.6
2017-Sep-21 15:29N 04°27' W 002°34'0 0.6
2017-Sep-21 14:59N 04°27' W 002°34'0 0.4
2017-Sep-21 14:29N 04°27' W 002°34'0 0.2
2017-Sep-21 14:01N 04°27' W 002°34'0 0.2
2017-Sep-21 13:30N 04°27' W 002°34'0 0.4
2017-Sep-21 13:00N 04°27' W 002°34'0 0.5
2017-Sep-21 12:30N 04°27' W 002°34'0 0.5
2017-Sep-21 11:59N 04°27' W 002°34'0 0.4
2017-Sep-21 11:29N 04°26' W 002°34'0 0.3
2017-Sep-21 11:00N 04°26' W 002°33'1 1.3
2017-Sep-21 10:30N 04°27' W 002°33'0 0.6
2017-Sep-21 10:00N 04°27' W 002°33'0 0.2
2017-Sep-21 09:29N 04°27' W 002°33'0 0.7
2017-Sep-21 08:59N 04°27' W 002°33'0 0.6
2017-Sep-21 08:30N 04°27' W 002°33'0 0.6
2017-Sep-21 08:00N 04°27' W 002°33'0 0.7
2017-Sep-21 07:29N 04°27' W 002°33'0 0.4
2017-Sep-21 06:59N 04°27' W 002°33'1 1.1
2017-Sep-21 06:30N 04°27' W 002°33'0 0.8
2017-Sep-21 06:00N 04°27' W 002°33'0 0.7
2017-Sep-21 05:29N 04°27' W 002°33'1 2.0
2017-Sep-21 04:59N 04°27' W 002°33'0 0.7
2017-Sep-21 04:30N 04°27' W 002°33'0 0.8
2017-Sep-21 04:00N 04°26' W 002°33'0 0.5
2017-Sep-21 03:29N 04°26' W 002°34'0 0.3
2017-Sep-21 02:59N 04°26' W 002°34'0 0.4
2017-Sep-21 02:29N 04°26' W 002°34'0 0.4
2017-Sep-21 02:00N 04°26' W 002°34'0 0.4
2017-Sep-21 01:29N 04°26' W 002°34'0 0.6
2017-Sep-21 00:59N 04°26' W 002°33'0 0.7
2017-Sep-21 00:29N 04°26' W 002°33'0 0.1
2017-Sep-21 00:00N 04°26' W 002°33'0 0.4
2017-Sep-20 23:30N 04°26' W 002°33'0 0.5
2017-Sep-20 23:00N 04°26' W 002°33'0 0.5
2017-Sep-20 22:29N 04°26' W 002°33'0 0.9
2017-Sep-20 21:59N 04°26' W 002°33'0 0.7
2017-Sep-20 21:29N 04°26' W 002°33'0 0.8
2017-Sep-20 20:59N 04°26' W 002°33'0 0.9
2017-Sep-20 20:30N 04°26' W 002°32'1 1.2
2017-Sep-20 20:00N 04°26' W 002°33'0 0.3
2017-Sep-20 19:29N 04°27' W 002°32'1 1.4
2017-Sep-20 18:59N 04°27' W 002°32'1 2.2
2017-Sep-20 18:30N 04°28' W 002°33'0 0.7
2017-Sep-20 18:00N 04°29' W 002°33'0 0.7
2017-Sep-20 17:30N 04°28' W 002°32'1 1.1
2017-Sep-20 17:00N 04°29' W 002°32'0 0.8
2017-Sep-20 16:30N 04°28' W 002°32'1 1.4
2017-Sep-20 15:59N 04°28' W 002°32'2 4.5
2017-Sep-20 15:29N 04°28' W 002°35'0 0.7
2017-Sep-20 14:59N 04°27' W 002°34'1 0.8
2017-Sep-20 14:00N 04°27' W 002°34'1 1.7
2017-Sep-20 13:30N 04°27' W 002°33'0 0.6
2017-Sep-20 12:59N 04°26' W 002°33'0 0.6
2017-Sep-20 12:29N 04°26' W 002°33'1 1.7
2017-Sep-20 12:00N 04°27' W 002°34'0 0.6
2017-Sep-20 11:30N 04°26' W 002°34'0 0.8
2017-Sep-20 11:00N 04°26' W 002°33'1 1.2
2017-Sep-20 10:29N 04°27' W 002°34'0 0.5
2017-Sep-20 09:59N 04°26' W 002°34'0 0.5
2017-Sep-20 09:29N 04°26' W 002°33'0 0.9
2017-Sep-20 08:59N 04°26' W 002°33'1 1.6
2017-Sep-20 08:30N 04°27' W 002°33'0 0.3
2017-Sep-20 08:00N 04°27' W 002°33'1 2.7
2017-Sep-20 07:29N 04°27' W 002°34'0 0.2
2017-Sep-20 06:59N 04°27' W 002°34'0 0.9
2017-Sep-20 06:29N 04°27' W 002°34'0 0.9
2017-Sep-20 06:00N 04°27' W 002°33'1 1.0
2017-Sep-20 05:30N 04°26' W 002°33'1 1.5
2017-Sep-20 04:59N 04°27' W 002°34'1 1.5
2017-Sep-20 04:29N 04°26' W 002°34'1 2.8
2017-Sep-20 04:00N 04°26' W 002°36'1 2.4
2017-Sep-20 03:30N 04°27' W 002°36'0 0.7
2017-Sep-20 03:00N 04°27' W 002°36'0 0.8
2017-Sep-20 02:29N 04°27' W 002°36'0 0.8
2017-Sep-20 01:59N 04°27' W 002°35'0 0.9
2017-Sep-20 01:30N 04°26' W 002°35'0 0.7
2017-Sep-20 01:00N 04°26' W 002°35'1 1.2
2017-Sep-20 00:29N 04°26' W 002°34'0 0.6
2017-Sep-19 23:59N 04°26' W 002°34'0 0.5
2017-Sep-19 23:30N 04°26' W 002°34'0 0.5
2017-Sep-19 23:00N 04°26' W 002°34'0 0.5
2017-Sep-19 22:30N 04°26' W 002°34'0 0.4
2017-Sep-19 21:59N 04°26' W 002°34'1 1.2
2017-Sep-19 21:29N 04°26' W 002°33'0 0.2
2017-Sep-19 20:59N 04°26' W 002°33'0 0.5
2017-Sep-19 20:30N 04°26' W 002°33'0 0.6
2017-Sep-19 19:58N 04°26' W 002°33'3 0.2
2017-Sep-19 05:01N 04°28' W 002°36'0 3.6
2017-Sep-19 04:59N 04°28' W 002°36'1 2.3
2017-Sep-19 04:29N 04°27' W 002°36'0 0.4
2017-Sep-19 04:00N 04°27' W 002°36'0 0.3
2017-Sep-19 03:30N 04°27' W 002°36'0 0.2
2017-Sep-19 02:59N 04°26' W 002°36'1 1.1
2017-Sep-19 02:29N 04°26' W 002°36'1 1.6
2017-Sep-19 02:00N 04°26' W 002°36'0 0.4
2017-Sep-19 01:30N 04°26' W 002°35'0 0.8
2017-Sep-19 01:00N 04°27' W 002°35'1 1.1
2017-Sep-19 00:29N 04°27' W 002°35'0 0.6
2017-Sep-18 23:59N 04°27' W 002°34'0 0.4
2017-Sep-18 23:30N 04°27' W 002°34'0 0.6
2017-Sep-18 23:00N 04°27' W 002°34'0 0.1
2017-Sep-18 22:30N 04°27' W 002°34'0 0.9
2017-Sep-18 22:00N 04°27' W 002°33'0 0.4
2017-Sep-18 21:29N 04°26' W 002°34'0 0.6
2017-Sep-18 20:59N 04°26' W 002°34'0 0.6
2017-Sep-18 20:29N 04°26' W 002°34'0 0.5
2017-Sep-18 19:59N 04°26' W 002°34'0 0.8
2017-Sep-18 19:30N 04°25' W 002°34'0 0.4
2017-Sep-18 19:00N 04°25' W 002°34'1 1.8
2017-Sep-18 18:30N 04°25' W 002°33'1 2.4
2017-Sep-18 18:00N 04°26' W 002°33'1 2.4
2017-Sep-18 17:29N 04°27' W 002°33'0 0.9
2017-Sep-18 16:59N 04°28' W 002°33'0 0.4
2017-Sep-18 16:29N 04°28' W 002°33'1 2.4
2017-Sep-18 15:59N 04°28' W 002°32'0 0.5
2017-Sep-18 15:30N 04°28' W 002°32'0 0.7
2017-Sep-18 15:00N 04°27' W 002°32'0 0.2
2017-Sep-18 14:30N 04°27' W 002°32'0 0.4
2017-Sep-18 14:00N 04°27' W 002°32'1 1.3
2017-Sep-18 13:29N 04°28' W 002°31'0 0.4
2017-Sep-18 12:59N 04°28' W 002°31'1 1.4
2017-Sep-18 12:29N 04°28' W 002°32'0 0.5
2017-Sep-18 12:00N 04°28' W 002°32'0 0.1
2017-Sep-18 11:28N 04°28' W 002°32'0 0.3
2017-Sep-18 11:00N 04°28' W 002°32'0 0.6
2017-Sep-18 10:29N 04°28' W 002°32'0 0.5
2017-Sep-18 09:59N 04°28' W 002°32'0 0.7
2017-Sep-18 09:30N 04°27' W 002°32'0 0.4
2017-Sep-18 09:00N 04°27' W 002°32'1 1.5
2017-Sep-18 08:29N 04°28' W 002°31'1 1.5
2017-Sep-18 07:59N 04°28' W 002°32'1 1.6
2017-Sep-18 07:29N 04°28' W 002°33'0 0.9
2017-Sep-18 06:59N 04°27' W 002°33'0 0.8
2017-Sep-18 06:29N 04°27' W 002°33'0 0.9
2017-Sep-18 06:00N 04°27' W 002°33'0 0.5
2017-Sep-18 05:30N 04°27' W 002°33'0 0.4
2017-Sep-18 04:59N 04°27' W 002°33'0 0.6
2017-Sep-18 04:29N 04°26' W 002°33'1 1.3
2017-Sep-18 04:00N 04°27' W 002°34'0 0.6
2017-Sep-18 03:30N 04°26' W 002°34'0 0.4
2017-Sep-18 02:59N 04°27' W 002°34'1 1.9
2017-Sep-18 02:29N 04°28' W 002°34'1 2.4
2017-Sep-18 01:59N 04°29' W 002°33'0 0.2
2017-Sep-18 01:30N 04°29' W 002°33'0 0.3
2017-Sep-18 01:00N 04°29' W 002°33'0 0.4
2017-Sep-18 00:30N 04°29' W 002°33'0 0.6
2017-Sep-17 23:59N 04°29' W 002°33'1 1.4
2017-Sep-17 23:29N 04°30' W 002°33'0 0.8
2017-Sep-17 23:00N 04°29' W 002°33'0 0.7
2017-Sep-17 22:30N 04°29' W 002°33'0 0.3
2017-Sep-17 22:00N 04°29' W 002°33'0 0.3
2017-Sep-17 21:29N 04°29' W 002°33'1 1.2
2017-Sep-17 20:59N 04°28' W 002°33'1 1.1
2017-Sep-17 20:30N 04°28' W 002°33'1 1.4
2017-Sep-17 20:00N 04°27' W 002°33'1 2.4
2017-Sep-17 19:30N 04°27' W 002°32'1 1.8
2017-Sep-17 19:00N 04°27' W 002°32'1 1.9
2017-Sep-17 18:29N 04°28' W 002°31'1 2.5
2017-Sep-17 17:59N 04°29' W 002°30'0 0.6
2017-Sep-17 17:30N 04°29' W 002°30'1 1.1
2017-Sep-17 17:00N 04°30' W 002°30'1 1.4
2017-Sep-17 16:30N 04°30' W 002°30'1 1.5
2017-Sep-17 15:59N 04°31' W 002°30'0 0.2
2017-Sep-17 15:29N 04°31' W 002°30'0 0.9
2017-Sep-17 14:59N 04°30' W 002°30'0 0.2
2017-Sep-17 14:30N 04°30' W 002°30'0 0.5
2017-Sep-17 14:00N 04°31' W 002°30'0 0.7
2017-Sep-17 13:29N 04°30' W 002°31'0 0.6
2017-Sep-17 12:59N 04°30' W 002°31'0 0.4
2017-Sep-17 12:29N 04°30' W 002°31'0 0.5
2017-Sep-17 11:58N 04°29' W 002°31'0 0.6
2017-Sep-17 11:30N 04°29' W 002°31'0 0.6
2017-Sep-17 11:00N 04°29' W 002°31'0 0.6
2017-Sep-17 10:30N 04°29' W 002°31'1 1.6
2017-Sep-17 10:00N 04°29' W 002°30'1 1.7
2017-Sep-17 09:29N 04°30' W 002°30'1 1.0
2017-Sep-17 08:59N 04°30' W 002°30'0 0.3
2017-Sep-17 08:29N 04°30' W 002°31'0 0.2
2017-Sep-17 07:59N 04°30' W 002°31'0 1.0
2017-Sep-17 07:30N 04°30' W 002°31'1 1.3
2017-Sep-17 07:00N 04°29' W 002°30'0 0.7
2017-Sep-17 06:30N 04°29' W 002°30'2 4.7
2017-Sep-17 06:00N 04°27' W 002°32'1 1.3
2017-Sep-17 05:29N 04°27' W 002°32'0 0.7
2017-Sep-17 04:59N 04°26' W 002°32'1 1.4
2017-Sep-17 04:30N 04°27' W 002°33'0 0.6
2017-Sep-17 04:00N 04°27' W 002°33'0 0.5
2017-Sep-17 03:30N 04°26' W 002°33'0 0.5
2017-Sep-17 03:00N 04°26' W 002°33'0 0.2
2017-Sep-17 02:30N 04°26' W 002°33'0 0.7
2017-Sep-17 01:59N 04°26' W 002°34'0 0.8
2017-Sep-17 01:30N 04°26' W 002°33'0 0.2
2017-Sep-17 01:00N 04°26' W 002°33'0 0.2
2017-Sep-17 00:30N 04°26' W 002°34'0 0.6
2017-Sep-16 23:59N 04°26' W 002°34'1 1.6
2017-Sep-16 23:29N 04°27' W 002°34'0 0.7
2017-Sep-16 23:00N 04°27' W 002°34'0 0.6
2017-Sep-16 22:30N 04°26' W 002°34'0 0.5
2017-Sep-16 22:00N 04°26' W 002°34'0 0.5
2017-Sep-16 21:29N 04°26' W 002°34'0 0.6
2017-Sep-16 20:59N 04°26' W 002°34'0 0.7
2017-Sep-16 20:30N 04°26' W 002°34'0 0.6
2017-Sep-16 20:00N 04°25' W 002°34'0 0.5
2017-Sep-16 19:30N 04°25' W 002°34'0 0.5
2017-Sep-16 19:00N 04°25' W 002°34'0 0.4
2017-Sep-16 18:29N 04°25' W 002°33'1 2.4
2017-Sep-16 17:59N 04°26' W 002°33'1 2.2
2017-Sep-16 17:29N 04°27' W 002°33'0 1.0
2017-Sep-16 16:59N 04°28' W 002°33'0 0.5
2017-Sep-16 16:30N 04°28' W 002°33'1 1.2
2017-Sep-16 16:00N 04°27' W 002°33'0 0.4
2017-Sep-16 15:30N 04°27' W 002°33'0 0.8
2017-Sep-16 15:00N 04°27' W 002°34'0 0.8
2017-Sep-16 14:30N 04°27' W 002°34'1 2.3
2017-Sep-16 14:00N 04°28' W 002°33'1 2.4
2017-Sep-16 13:29N 04°27' W 002°33'1 1.3
2017-Sep-16 12:59N 04°27' W 002°32'1 2.0
2017-Sep-16 12:29N 04°28' W 002°32'1 1.4
2017-Sep-16 11:59N 04°29' W 002°32'1 1.3
2017-Sep-16 11:30N 04°29' W 002°32'0 0.3
2017-Sep-16 10:59N 04°29' W 002°32'0 0.4
2017-Sep-16 10:29N 04°29' W 002°32'0 0.5
2017-Sep-16 10:00N 04°29' W 002°32'1 1.5
2017-Sep-16 09:29N 04°29' W 002°31'1 1.2
2017-Sep-16 08:59N 04°29' W 002°30'3 5.3
2017-Sep-16 08:29N 04°27' W 002°32'0 0.6
2017-Sep-16 07:59N 04°27' W 002°32'0 0.4
2017-Sep-16 07:30N 04°26' W 002°32'1 1.2
2017-Sep-16 07:00N 04°27' W 002°33'0 0.5
2017-Sep-16 06:30N 04°27' W 002°33'0 0.4
2017-Sep-16 05:59N 04°26' W 002°33'1 1.4
2017-Sep-16 05:29N 04°26' W 002°33'2 3.5
2017-Sep-16 04:59N 04°25' W 002°35'1 2.7
2017-Sep-16 04:30N 04°26' W 002°35'0 0.6
2017-Sep-16 04:00N 04°26' W 002°34'0 0.4
2017-Sep-16 03:29N 04°27' W 002°34'1 1.9
2017-Sep-16 02:59N 04°26' W 002°35'1 1.8
2017-Sep-16 02:30N 04°26' W 002°35'0 0.2
2017-Sep-16 02:00N 04°26' W 002°35'0 0.6
2017-Sep-16 01:30N 04°26' W 002°35'0 0.4
2017-Sep-16 00:59N 04°26' W 002°35'0 0.6
2017-Sep-16 00:27N 04°26' W 002°35'1 1.2
2017-Sep-15 23:59N 04°27' W 002°34'0 0.5
2017-Sep-15 23:30N 04°26' W 002°35'0 0.5
2017-Sep-15 23:00N 04°27' W 002°34'0 0.4
2017-Sep-15 22:29N 04°26' W 002°34'0 0.4
2017-Sep-15 21:59N 04°27' W 002°34'0 0.5
2017-Sep-15 21:29N 04°26' W 002°34'0 0.8
2017-Sep-15 21:00N 04°26' W 002°34'0 1.0
2017-Sep-15 20:30N 04°27' W 002°34'1 1.6
2017-Sep-15 20:00N 04°27' W 002°33'1 2.7
2017-Sep-15 19:29N 04°28' W 002°32'2 3.5
2017-Sep-15 18:59N 04°29' W 002°31'0 0.4
2017-Sep-15 18:30N 04°29' W 002°31'0 1.0
2017-Sep-15 18:00N 04°29' W 002°30'0 0.1
2017-Sep-15 17:30N 04°29' W 002°30'3 6.1
2017-Sep-15 16:59N 04°28' W 002°33'1 2.5
2017-Sep-15 16:29N 04°28' W 002°34'0 0.3
2017-Sep-15 15:59N 04°28' W 002°35'0 0.5
2017-Sep-15 15:30N 04°28' W 002°35'0 0.4
2017-Sep-15 15:00N 04°28' W 002°35'0 0.5
2017-Sep-15 14:30N 04°28' W 002°35'0 0.6
2017-Sep-15 13:59N 04°27' W 002°35'0 0.6
2017-Sep-15 13:29N 04°27' W 002°35'0 0.5
2017-Sep-15 13:00N 04°27' W 002°35'0 0.4
2017-Sep-15 12:30N 04°27' W 002°35'0 0.3
2017-Sep-15 12:00N 04°27' W 002°35'1 1.8
2017-Sep-15 11:29N 04°27' W 002°36'1 1.1
2017-Sep-15 10:59N 04°28' W 002°36'0 0.4
2017-Sep-15 10:29N 04°28' W 002°36'1 1.6
2017-Sep-15 10:00N 04°29' W 002°35'0 0.5
2017-Sep-15 09:30N 04°28' W 002°36'0 0.4
2017-Sep-15 09:00N 04°28' W 002°36'0 0.4
2017-Sep-15 08:29N 04°28' W 002°36'1 1.4
2017-Sep-15 07:59N 04°28' W 002°35'0 0.7
2017-Sep-15 07:30N 04°28' W 002°35'0 0.5
2017-Sep-15 07:00N 04°28' W 002°35'0 0.5
2017-Sep-15 06:30N 04°28' W 002°35'0 0.4
2017-Sep-15 06:00N 04°28' W 002°35'0 0.4
2017-Sep-15 05:29N 04°27' W 002°35'1 1.8
2017-Sep-15 04:59N 04°27' W 002°35'1 1.0
2017-Sep-15 04:29N 04°27' W 002°34'0 0.6
2017-Sep-15 03:59N 04°27' W 002°34'1 2.2
2017-Sep-15 03:30N 04°26' W 002°35'0 0.6
2017-Sep-15 03:00N 04°26' W 002°35'0 0.8
2017-Sep-15 02:29N 04°26' W 002°34'0 0.4
2017-Sep-15 01:59N 04°26' W 002°35'0 0.1
2017-Sep-15 01:29N 04°26' W 002°35'0 0.3
2017-Sep-15 01:00N 04°26' W 002°35'1 1.1
2017-Sep-15 00:30N 04°26' W 002°34'0 0.6
2017-Sep-15 00:00N 04°26' W 002°34'0 0.6
2017-Sep-14 23:29N 04°26' W 002°35'0 0.2
2017-Sep-14 22:59N 04°26' W 002°35'0 0.4
2017-Sep-14 22:30N 04°26' W 002°34'0 0.7
2017-Sep-14 22:00N 04°26' W 002°35'0 0.6
2017-Sep-14 21:30N 04°26' W 002°35'0 0.6
2017-Sep-14 20:59N 04°26' W 002°35'0 0.5
2017-Sep-14 20:30N 04°26' W 002°36'0 0.5
2017-Sep-14 20:00N 04°26' W 002°36'0 0.6
2017-Sep-14 19:30N 04°26' W 002°36'0 0.1
2017-Sep-14 19:00N 04°26' W 002°36'1 2.2
2017-Sep-14 18:29N 04°26' W 002°35'1 2.3
2017-Sep-14 17:59N 04°27' W 002°34'1 2.1
2017-Sep-14 17:25N 04°28' W 002°33'1 1.3
2017-Sep-14 16:58N 04°27' W 002°33'1 1.9
2017-Sep-14 16:30N 04°27' W 002°32'1 2.1
2017-Sep-14 15:59N 04°27' W 002°31'0 0.5
2017-Sep-14 15:29N 04°27' W 002°31'0 0.3
2017-Sep-14 14:59N 04°27' W 002°31'0 0.3
2017-Sep-14 14:30N 04°27' W 002°31'0 0.6
2017-Sep-14 14:00N 04°27' W 002°31'0 0.7
2017-Sep-14 13:30N 04°26' W 002°32'0 0.8
2017-Sep-14 12:59N 04°26' W 002°32'0 0.6
2017-Sep-14 12:29N 04°26' W 002°32'0 0.6
2017-Sep-14 11:59N 04°27' W 002°32'0 0.5
2017-Sep-14 11:29N 04°27' W 002°33'0 0.4
2017-Sep-14 11:00N 04°27' W 002°33'0 0.4
2017-Sep-14 10:29N 04°27' W 002°33'0 0.4
2017-Sep-14 09:59N 04°27' W 002°33'0 0.4
2017-Sep-14 09:30N 04°27' W 002°33'1 1.0
2017-Sep-14 09:00N 04°27' W 002°34'1 2.2
2017-Sep-14 08:26N 04°26' W 002°33'0 0.4
2017-Sep-14 08:00N 04°26' W 002°33'1 1.1
2017-Sep-14 07:29N 04°26' W 002°33'0 0.1
2017-Sep-14 06:59N 04°26' W 002°33'0 0.7
2017-Sep-14 06:29N 04°26' W 002°33'0 1.0
2017-Sep-14 06:00N 04°26' W 002°33'1 1.6
2017-Sep-14 05:30N 04°27' W 002°33'0 0.3
2017-Sep-14 04:59N 04°27' W 002°33'0 0.8
2017-Sep-14 04:29N 04°27' W 002°33'0 0.8
2017-Sep-14 03:59N 04°27' W 002°34'0 0.7
2017-Sep-14 03:30N 04°27' W 002°34'0 0.1
2017-Sep-14 03:00N 04°27' W 002°34'1 1.2
2017-Sep-14 02:30N 04°27' W 002°34'0 0.8
2017-Sep-14 02:00N 04°27' W 002°34'0 0.4
2017-Sep-14 01:30N 04°27' W 002°34'0 0.9
2017-Sep-14 01:00N 04°27' W 002°34'0 0.6
2017-Sep-14 00:30N 04°27' W 002°34'0 0.7
2017-Sep-13 23:59N 04°26' W 002°34'  

Dump ship's entire track history